Terminal Aerodrome Forecast
Issued by NWS Cleveland, OH

Home | Current Version | Previous Version | Text Only | Print | Product List | Glossary On
Versions: 1 2 3 4 5 6 7 8 9 10 11 12 13 14
000
FTUS41 KCLE 232324
TAFCAK
TAF
KCAK 232324Z 2400/2424 31006KT P6SM SCT045 BKN090
     FM241300 36006KT P6SM BKN040
     FM241800 35007KT P6SM SCT120 PROB30 2418/2424 5SM -SHRA BKN045=

USA.gov is the U.S. government's official web portal to all federal, state and local government web resources and services.